SCDA 191300Z 14004KT 9999 BKN022 17/10 Q1019